Time;durP1;ratioP1;P1;durP2;ratioP2;P2;SDS_P1;SDS_P2;PMS_P1;PMS_P2;Temp;Humidity;BMP_temperature;BMP_pressure;BME280_temperature;BME280_humidity;BME280_pressure;Samples;Min_cycle;Max_cycle;Signal;HPM_P1;HPM_P2
2023/10/01 00:02:15;;;;;;;107.57;7.13;;;;;;;22.60;47.68;100359.16;7299561;19;129030;-33
2023/10/01 00:04:41;;;;;;;117.18;7.45;;;;;;;22.62;48.12;100357.22;7305564;19;130013;-36
2023/10/01 00:07:06;;;;;;;81.80;5.95;;;;;;;22.60;47.98;100353.91;7306017;19;129595;-35
2023/10/01 00:09:32;;;;;;;97.13;7.00;;;;;;;22.59;47.69;100359.28;7305961;19;129109;-34
2023/10/01 00:11:57;;;;;;;81.33;5.80;;;;;;;22.49;48.56;100340.00;7302493;19;129214;-36
2023/10/01 00:14:22;;;;;;;103.47;6.53;;;;;;;22.59;47.43;100357.47;7305826;19;129796;-36
2023/10/01 00:16:48;;;;;;;85.93;6.25;;;;;;;22.60;47.90;100358.31;7305090;19;130180;-38
2023/10/01 00:19:13;;;;;;;75.13;5.38;;;;;;;22.48;48.24;100331.28;7304667;19;128858;-35
2023/10/01 00:21:39;;;;;;;88.17;5.80;;;;;;;22.61;47.21;100354.75;7303327;19;129245;-35
2023/10/01 00:24:04;;;;;;;102.80;6.57;;;;;;;22.60;47.54;100353.06;7304293;19;129794;-38
2023/10/01 00:26:30;;;;;;;67.73;5.07;;;;;;;22.60;48.26;100353.91;7305825;19;130432;-34
2023/10/01 00:28:56;;;;;;;110.90;7.03;;;;;;;22.59;47.74;100346.16;7304369;19;129447;-35
2023/10/01 00:31:21;;;;;;;85.95;5.82;;;;;;;22.61;47.27;100354.75;7302461;19;129880;-36
2023/10/01 00:33:47;;;;;;;98.33;5.87;;;;;;;22.62;47.22;100356.41;7305727;19;129955;-34
2023/10/01 00:36:13;;;;;;;83.63;5.40;;;;;;;22.63;47.09;100352.81;7303592;19;130429;-38
2023/10/01 00:38:38;;;;;;;64.77;4.97;;;;;;;22.61;47.26;100352.13;7303049;19;129741;-34
2023/10/01 00:41:05;;;;;;;85.80;5.60;;;;;;;22.59;47.66;100352.22;7304351;19;129182;-36
2023/10/01 00:43:31;;;;;;;79.30;5.20;;;;;;;22.55;47.95;100344.75;7307156;19;130740;-37
2023/10/01 00:45:58;;;;;;;107.77;6.67;;;;;;;22.61;48.26;100344.25;7306276;19;131779;-33
2023/10/01 00:48:24;;;;;;;66.82;4.68;;;;;;;22.60;48.31;100338.19;7303212;19;129433;-36
2023/10/01 00:50:54;;;;;;;123.07;7.07;;;;;;;22.58;47.90;100344.50;7303652;19;129185;-36
2023/10/01 00:53:21;;;;;;;128.68;7.35;;;;;;;22.59;47.20;100336.50;7305559;19;130336;-35
2023/10/01 00:55:48;;;;;;;;;;;;;;;22.61;49.73;100326.72;7305758;19;130509;-34
2023/10/01 00:58:15;;;;;;;112.63;6.75;;;;;;;22.58;47.17;100326.97;7301920;19;129444;-35
2023/10/01 01:00:42;;;;;;;84.30;5.70;;;;;;;22.55;47.88;100324.63;7303715;19;129291;-34
2023/10/01 01:03:09;;;;;;;102.75;6.53;;;;;;;22.55;47.79;100324.63;7304390;19;131056;-36
2023/10/01 01:05:40;;;;;;;67.95;5.00;;;;;;;22.54;47.92;100322.13;7305662;19;130859;-33
2023/10/01 01:08:21;;;;;;;92.25;6.22;;;;;;;22.54;48.97;100322.13;7304189;19;129100;-35
2023/10/01 01:10:49;;;;;;;67.65;4.65;;;;;;;22.59;47.73;100325.19;7301825;19;129674;-36
2023/10/01 01:13:16;;;;;;;92.88;5.70;;;;;;;22.55;47.10;100310.69;7304349;19;131003;-32
2023/10/01 01:15:45;;;;;;;86.13;5.75;;;;;;;22.53;47.85;100309.97;7311450;19;130330;-37
2023/10/01 01:18:13;;;;;;;71.53;5.13;;;;;;;22.54;47.77;100306.41;7306612;19;129171;-35
2023/10/01 01:20:45;;;;;;;83.97;5.80;;;;;;;22.52;47.79;100303.06;7309116;19;129838;-35
2023/10/01 01:23:15;;;;;;;82.45;5.03;;;;;;;22.52;48.32;100305.66;7310919;19;130375;-35
2023/10/01 01:25:40;;;;;;;131.93;7.68;;;;;;;22.53;47.32;100305.56;7310127;19;129922;-35
2023/10/01 01:28:12;;;;;;;79.37;5.47;;;;;;;22.57;47.76;100301.75;7311570;19;129620;-35
2023/10/01 01:30:42;;;;;;;73.28;4.95;;;;;;;22.56;46.79;100302.69;7311510;19;129488;-36
2023/10/01 01:33:13;;;;;;;96.80;6.38;;;;;;;22.54;47.47;100307.25;7308239;19;132139;-35
2023/10/01 01:35:43;;;;;;;89.65;5.88;;;;;;;22.54;47.56;100306.41;7310812;19;130291;-35
2023/10/01 01:38:09;;;;;;;145.15;8.45;;;;;;;22.54;46.91;100303.78;7308248;19;129074;-36
2023/10/01 01:40:40;;;;;;;72.73;4.90;;;;;;;22.54;47.48;100304.63;7310698;19;128880;-36
2023/10/01 01:43:15;;;;;;;108.47;6.82;;;;;;;22.55;47.04;100305.44;7310137;19;130674;-35
2023/10/01 01:45:44;;;;;;;45.17;4.03;;;;;;;22.54;47.84;100303.78;7306957;19;130748;-36
2023/10/01 01:48:25;;;;;;;164.05;9.65;;;;;;;22.53;47.46;100299.50;7309049;19;129606;-35
2023/10/01 01:50:54;;;;;;;136.35;7.45;;;;;;;22.49;47.32;100298.91;7308494;19;129927;-37
2023/10/01 01:53:20;;;;;;;77.03;4.82;;;;;;;22.51;47.27;100293.53;7311034;19;130311;-39
2023/10/01 01:55:47;;;;;;;67.75;4.97;;;;;;;22.50;47.57;100294.47;7309284;19;130368;-38
2023/10/01 01:58:15;;;;;;;56.92;4.22;;;;;;;22.49;47.11;100298.06;7308125;19;129577;-32
2023/10/01 02:01:01;;;;;;;114.88;6.78;;;;;;;22.39;47.38;100281.47;7308759;19;128895;-37
2023/10/01 02:03:27;;;;;;;107.05;6.63;;;;;;;22.52;47.12;100289.94;7310510;19;130651;-37
2023/10/01 02:05:53;;;;;;;67.70;4.75;;;;;;;22.49;47.48;100292.84;7309163;19;129747;-33
2023/10/01 02:08:24;;;;;;;62.20;4.72;;;;;;;22.54;47.77;100298.56;7310133;19;128972;-36
2023/10/01 02:10:51;;;;;;;64.78;4.57;;;;;;;22.55;47.35;100297.59;7309080;19;129102;-36
2023/10/01 02:13:17;;;;;;;97.45;6.05;;;;;;;22.55;47.48;100303.66;7310786;19;133060;-38
2023/10/01 02:15:45;;;;;;;101.00;6.60;;;;;;;22.51;47.30;100293.53;7306960;19;130444;-35
2023/10/01 02:18:13;;;;;;;98.90;6.40;;;;;;;22.50;47.54;100294.47;7305287;19;129629;-33
2023/10/01 02:20:40;;;;;;;80.10;5.88;;;;;;;22.49;47.14;100285.81;7307940;19;129202;-37
2023/10/01 02:23:12;;;;;;;105.63;6.65;;;;;;;22.51;47.73;100285.69;7309267;19;130545;-36
2023/10/01 02:25:45;;;;;;;109.05;6.97;;;;;;;22.51;48.34;100288.31;7309479;19;130689;-36
2023/10/01 02:28:13;;;;;;;122.03;7.70;;;;;;;22.49;47.18;100288.44;7308938;19;129963;-37
2023/10/01 02:30:44;;;;;;;51.33;4.32;;;;;;;22.51;47.72;100283.06;7305840;19;129523;-36
2023/10/01 02:33:19;;;;;;;127.13;7.60;;;;;;;22.48;48.43;100285.91;7304951;19;130078;-35
2023/10/01 02:35:48;;;;;;;83.57;5.47;;;;;;;22.48;47.30;100288.53;7307997;19;130940;-35
2023/10/01 02:40:58;;;;;;;122.93;6.90;;;;;;;22.35;47.71;100259.06;7306675;19;129210;-36
